Time;durP1;ratioP1;P1;durP2;ratioP2;P2;SDS_P1;SDS_P2;PMS_P1;PMS_P2;Temp;Humidity;BMP_temperature;BMP_pressure;BME280_temperature;BME280_humidity;BME280_pressure;Samples;Min_cycle;Max_cycle;Signal;HPM_P1;HPM_P2
2023/05/10 00:02:06;;;;;;;2.00;1.80;;;15.50;46.10;;;;;;5004126;28;20195;-66
2023/05/10 00:04:33;;;;;;;2.73;1.63;;;15.50;46.20;;;;;;5009323;28;20227;-66
2023/05/10 00:07:01;;;;;;;1.73;1.63;;;15.50;46.20;;;;;;4986732;28;20207;-65
2023/05/10 00:09:28;;;;;;;2.47;1.83;;;15.40;46.20;;;;;;5006950;28;20249;-65
2023/05/10 00:11:58;;;;;;;2.03;1.80;;;15.40;46.20;;;;;;5009056;28;20662;-66
2023/05/10 00:14:25;;;;;;;1.70;1.60;;;15.40;46.40;;;;;;5006288;28;20655;-66
2023/05/10 00:16:52;;;;;;;1.80;1.70;;;15.40;46.50;;;;;;5010400;28;20693;-65
2023/05/10 00:19:19;;;;;;;3.63;1.90;;;15.40;46.40;;;;;;5009434;28;20230;-66
2023/05/10 00:21:46;;;;;;;7.07;2.07;;;15.40;46.50;;;;;;5005921;28;20278;-65
2023/05/10 00:24:13;;;;;;;2.33;2.00;;;15.40;46.60;;;;;;5010023;28;20218;-65
2023/05/10 00:26:42;;;;;;;1.87;1.77;;;15.30;47.20;;;;;;5010429;28;20202;-65
2023/05/10 00:29:10;;;;;;;1.80;1.70;;;15.30;46.70;;;;;;5007055;28;20199;-65
2023/05/10 00:31:37;;;;;;;1.50;1.40;;;15.30;46.80;;;;;;5010682;28;20210;-66
2023/05/10 00:34:04;;;;;;;1.33;1.20;;;15.20;46.80;;;;;;5008631;28;20276;-64
2023/05/10 00:36:32;;;;;;;1.57;1.47;;;15.20;47.00;;;;;;5005895;28;20563;-65
2023/05/10 00:38:59;;;;;;;1.37;1.27;;;15.20;47.00;;;;;;4999565;28;20230;-65
2023/05/10 00:41:31;;;;;;;1.43;1.33;;;15.10;47.00;;;;;;4993818;28;20202;-66
2023/05/10 00:44:00;;;;;;;2.03;1.47;;;15.10;47.20;;;;;;4993170;28;20290;-65
2023/05/10 00:46:29;;;;;;;2.10;1.23;;;15.00;47.30;;;;;;4999512;28;20199;-66
2023/05/10 00:48:56;;;;;;;1.37;1.27;;;15.00;47.20;;;;;;5008253;28;20191;-65
2023/05/10 00:51:28;;;;;;;1.40;1.30;;;14.90;47.30;;;;;;4989038;28;20199;-65
2023/05/10 00:53:55;;;;;;;1.43;1.33;;;14.90;47.50;;;;;;4995599;28;20202;-65
2023/05/10 00:56:24;;;;;;;1.40;1.30;;;14.90;47.50;;;;;;5002542;28;20211;-66
2023/05/10 00:58:51;;;;;;;2.30;1.40;;;14.90;47.40;;;;;;5008055;28;20228;-66
2023/05/10 01:01:18;;;;;;;1.87;1.40;;;15.00;47.50;;;;;;4993753;28;20230;-66
2023/05/10 01:03:47;;;;;;;1.40;1.30;;;15.00;47.50;;;;;;5002132;28;20594;-65
2023/05/10 01:06:16;;;;;;;1.67;1.50;;;14.90;47.50;;;;;;4991673;28;20203;-65
2023/05/10 01:08:44;;;;;;;1.50;1.40;;;14.90;47.60;;;;;;5009630;28;20642;-66
2023/05/10 01:11:14;;;;;;;1.67;1.40;;;14.90;47.70;;;;;;4989520;28;20293;-67
2023/05/10 01:13:44;;;;;;;1.93;1.47;;;14.80;47.70;;;;;;4987550;28;20298;-66
2023/05/10 01:16:11;;;;;;;2.70;1.47;;;14.70;47.70;;;;;;5009184;28;20194;-65
2023/05/10 01:18:41;;;;;;;2.20;1.50;;;14.80;47.90;;;;;;5008078;28;20409;-65
2023/05/10 01:21:23;;;;;;;1.93;1.60;;;14.70;47.90;;;;;;5013892;28;20193;-64
2023/05/10 01:24:10;;;;;;;1.53;1.40;;;14.70;48.00;;;;;;4993480;28;20334;-65
2023/05/10 01:27:06;;;;;;;1.40;1.30;;;14.70;48.00;;;;;;5012980;28;20210;-67
2023/05/10 01:30:01;;;;;;;1.30;1.20;;;14.60;48.10;;;;;;5014001;28;20207;-67
2023/05/10 01:32:35;;;;;;;1.10;1.10;;;14.60;48.20;;;;;;5009132;28;20234;-65
2023/05/10 01:35:07;;;;;;;1.60;1.50;;;14.50;48.30;;;;;;5012405;28;20196;-66
2023/05/10 01:37:42;;;;;;;1.57;1.47;;;14.50;48.30;;;;;;5011920;28;20194;-66
2023/05/10 01:40:19;;;;;;;1.50;1.40;;;14.50;48.30;;;;;;5011852;28;20198;-65
2023/05/10 01:42:51;;;;;;;1.40;1.30;;;14.50;48.50;;;;;;5009588;28;20209;-65
2023/05/10 01:45:26;;;;;;;1.80;1.70;;;14.40;48.50;;;;;;4994194;28;20775;-65
2023/05/10 01:48:05;;;;;;;3.23;1.60;;;14.40;48.50;;;;;;5011672;28;20206;-65
2023/05/10 01:50:36;;;;;;;2.70;1.67;;;14.40;48.60;;;;;;4992567;28;20202;-65
2023/05/10 01:53:04;;;;;;;3.00;1.40;;;14.40;48.60;;;;;;4995809;28;20221;-65
2023/05/10 01:55:35;;;;;;;1.53;1.40;;;14.30;48.60;;;;;;5009250;28;20557;-65
2023/05/10 01:58:06;;;;;;;1.60;1.50;;;14.30;48.70;;;;;;5011771;28;20241;-66
2023/05/10 02:00:35;;;;;;;1.70;1.60;;;14.20;48.80;;;;;;4991843;28;20203;-66
2023/05/10 02:03:08;;;;;;;1.60;1.50;;;14.10;48.90;;;;;;5010070;28;20245;-66
2023/05/10 02:05:36;;;;;;;1.70;1.60;;;14.10;49.00;;;;;;5009191;28;20214;-66
2023/05/10 02:08:06;;;;;;;2.10;1.87;;;14.10;49.10;;;;;;5002098;28;20199;-66
2023/05/10 02:10:35;;;;;;;1.60;1.50;;;14.10;49.20;;;;;;4994498;28;20210;-65
2023/05/10 02:13:04;;;;;;;1.40;1.30;;;14.10;49.20;;;;;;5006263;28;20246;-66
2023/05/10 02:15:32;;;;;;;2.80;1.70;;;14.10;49.20;;;;;;4994702;28;20288;-65
2023/05/10 02:18:02;;;;;;;1.60;1.50;;;14.10;49.20;;;;;;5010113;28;20282;-66
2023/05/10 02:20:33;;;;;;;2.40;1.60;;;14.10;49.20;;;;;;5002525;28;20210;-66
2023/05/10 02:23:02;;;;;;;1.90;1.67;;;14.10;49.20;;;;;;5008562;28;20230;-67
2023/05/10 02:25:32;;;;;;;1.73;1.53;;;14.10;49.20;;;;;;5012937;28;20236;-64
2023/05/10 02:28:03;;;;;;;1.40;1.30;;;14.10;49.20;;;;;;5011249;28;20205;-64
2023/05/10 02:30:32;;;;;;;1.50;1.40;;;14.10;49.20;;;;;;5010321;28;20210;-65
2023/05/10 02:33:00;;;;;;;1.40;1.30;;;14.00;49.30;;;;;;5008303;28;20277;-65
2023/05/10 02:35:30;;;;;;;1.40;1.30;;;14.00;49.30;;;;;;5009863;28;20230;-65
2023/05/10 02:37:59;;;;;;;1.40;1.30;;;14.00;49.40;;;;;;5010130;28;20209;-64
2023/05/10 02:40:28;;;;;;;1.73;1.40;;;14.00;49.50;;;;;;5013081;28;20192;-64
2023/05/10 02:42:58;;;;;;;1.23;1.13;;;14.00;49.60;;;;;;4991955;28;20561;-63
2023/05/10 02:45:30;;;;;;;1.70;1.60;;;13.90;49.60;;;;;;5012705;28;20202;-65
2023/05/10 02:47:57;;;;;;;1.60;1.50;;;13.80;49.70;;;;;;5007166;28;20198;-64
2023/05/10 02:50:28;;;;;;;1.60;1.50;;;13.80;49.70;;;;;;5009163;28;20208;-63
2023/05/10 02:53:01;;;;;;;1.67;1.57;;;13.80;49.80;;;;;;5004119;28;20322;-63
2023/05/10 02:55:34;;;;;;;1.53;1.30;;;13.70;49.80;;;;;;5014577;28;20233;-62
2023/05/10 02:58:02;;;;;;;1.50;1.40;;;13.70;49.80;;;;;;5009643;28;20645;-65
2023/05/10 03:00:30;;;;;;;2.00;1.80;;;13.70;49.90;;;;;;5009977;28;20748;-65
2023/05/10 03:02:57;;;;;;;2.50;1.60;;;13.80;50.00;;;;;;5010870;28;20237;-65
2023/05/10 03:05:25;;;;;;;1.70;1.60;;;13.80;50.00;;;;;;4994093;28;20210;-65
2023/05/10 03:07:54;;;;;;;1.47;1.37;;;13.80;50.00;;;;;;4992317;28;20205;-65
2023/05/10 03:10:27;;;;;;;1.30;1.20;;;13.80;50.10;;;;;;5001885;28;20201;-65
2023/05/10 03:13:13;;;;;;;1.50;1.40;;;13.80;50.10;;;;;;4990948;28;20213;-64
2023/05/10 03:15:52;;;;;;;1.70;1.60;;;13.80;50.20;;;;;;4985318;28;20241;-66
2023/05/10 03:18:23;;;;;;;1.67;1.50;;;13.80;50.20;;;;;;4978509;28;20205;-66
2023/05/10 03:20:53;;;;;;;1.80;1.70;;;13.80;50.20;;;;;;5008700;28;20206;-66
2023/05/10 03:23:27;;;;;;;2.00;1.33;;;13.80;50.20;;;;;;4987878;28;20269;-64
2023/05/10 03:25:56;;;;;;;1.60;1.50;;;13.80;50.40;;;;;;4991953;28;20202;-65
2023/05/10 03:28:26;;;;;;;2.33;1.67;;;13.70;50.40;;;;;;4997257;28;20210;-65
2023/05/10 03:30:54;;;;;;;1.97;1.60;;;13.70;50.50;;;;;;5011256;28;20197;-65
2023/05/10 03:33:21;;;;;;;2.10;1.80;;;13.60;50.50;;;;;;4979132;28;20608;-65
2023/05/10 03:35:48;;;;;;;1.80;1.70;;;13.70;50.60;;;;;;5009507;28;20246;-66
2023/05/10 03:38:16;;;;;;;1.77;1.23;;;13.60;50.60;;;;;;5009152;28;20252;-66
2023/05/10 03:40:43;;;;;;;1.67;1.40;;;13.60;50.70;;;;;;5008090;28;20197;-66
2023/05/10 03:43:12;;;;;;;1.90;1.80;;;13.60;50.70;;;;;;4993539;28;20213;-66
2023/05/10 03:45:39;;;;;;;3.07;1.90;;;13.60;50.70;;;;;;5008320;28;20634;-66
2023/05/10 03:48:07;;;;;;;2.30;2.10;;;13.60;50.60;;;;;;4991977;28;20640;-66
2023/05/10 03:50:34;;;;;;;2.40;2.20;;;13.70;50.60;;;;;;4990489;28;20309;-66
2023/05/10 03:53:02;;;;;;;1.90;1.80;;;13.70;50.50;;;;;;5007680;28;20210;-66
2023/05/10 03:55:29;;;;;;;3.23;2.03;;;13.70;50.50;;;;;;4988141;28;20677;-66
2023/05/10 03:57:57;;;;;;;2.40;2.20;;;13.60;50.50;;;;;;4993427;28;20208;-66
2023/05/10 04:00:26;;;;;;;2.50;1.70;;;13.60;50.50;;;;;;4990864;28;20204;-66
2023/05/10 04:02:55;;;;;;;2.30;2.10;;;13.60;50.50;;;;;;4991563;28;20248;-66
2023/05/10 04:05:24;;;;;;;2.30;2.10;;;13.60;50.50;;;;;;4993266;28;20219;-66
2023/05/10 04:07:53;;;;;;;3.77;2.20;;;13.60;50.50;;;;;;4989724;28;20221;-67
2023/05/10 04:10:21;;;;;;;2.97;2.50;;;13.60;50.50;;;;;;4990079;28;20208;-65
2023/05/10 04:12:48;;;;;;;3.17;2.50;;;13.60;50.50;;;;;;5003036;28;20239;-65
2023/05/10 04:15:15;;;;;;;3.13;2.40;;;13.50;51.00;;;;;;5000420;28;20620;-65
2023/05/10 04:17:43;;;;;;;3.60;2.23;;;13.50;50.50;;;;;;4992525;28;20631;-65
2023/05/10 04:20:12;;;;;;;2.20;2.00;;;13.60;50.60;;;;;;5009810;28;20621;-65
2023/05/10 04:22:39;;;;;;;4.37;2.70;;;13.60;50.50;;;;;;5006676;28;20220;-65
2023/05/10 04:25:07;;;;;;;2.67;2.43;;;13.60;50.60;;;;;;5005054;28;20305;-66
2023/05/10 04:27:34;;;;;;;5.10;2.47;;;13.50;50.50;;;;;;5010841;28;20198;-65
2023/05/10 04:30:02;;;;;;;3.00;2.30;;;13.50;50.60;;;;;;5007299;28;20212;-66
2023/05/10 04:32:29;;;;;;;5.50;2.90;;;13.50;50.60;;;;;;4994435;28;20208;-65
2023/05/10 04:34:57;;;;;;;3.57;2.50;;;13.50;50.70;;;;;;5008399;28;20252;-66
2023/05/10 04:37:24;;;;;;;7.30;2.80;;;13.50;50.70;;;;;;4991123;28;20235;-66
2023/05/10 04:39:51;;;;;;;3.00;2.30;;;13.50;50.70;;;;;;5010410;28;20415;-66
2023/05/10 04:42:18;;;;;;;3.40;2.50;;;13.50;50.70;;;;;;5007622;28;20194;-65
2023/05/10 04:44:46;;;;;;;3.30;2.30;;;13.60;50.80;;;;;;5008718;28;20322;-66
2023/05/10 04:47:14;;;;;;;2.93;2.63;;;13.60;50.80;;;;;;5009528;28;20690;-66
2023/05/10 04:49:41;;;;;;;3.00;2.50;;;13.70;50.90;;;;;;4990674;28;20198;-65
2023/05/10 04:52:09;;;;;;;3.17;2.50;;;13.70;50.90;;;;;;5009791;28;20196;-66
2023/05/10 04:54:36;;;;;;;3.33;2.30;;;13.70;50.90;;;;;;5009792;28;20197;-66
2023/05/10 04:57:04;;;;;;;2.93;2.10;;;13.70;50.90;;;;;;5003661;28;20627;-66
2023/05/10 04:59:31;;;;;;;2.93;2.20;;;13.80;51.10;;;;;;5010294;28;20229;-66
2023/05/10 05:01:58;;;;;;;2.97;2.50;;;13.80;51.10;;;;;;5008684;28;20198;-66
2023/05/10 05:04:25;;;;;;;2.30;2.03;;;13.80;51.20;;;;;;5005264;28;20228;-66
2023/05/10 05:06:52;;;;;;;3.27;2.17;;;13.80;51.20;;;;;;4990683;28;20630;-64
2023/05/10 05:09:21;;;;;;;1.77;1.67;;;13.90;51.30;;;;;;5009964;28;20207;-66
2023/05/10 05:11:48;;;;;;;1.77;1.60;;;13.90;51.20;;;;;;5004606;28;20206;-66
2023/05/10 05:14:15;;;;;;;1.50;1.40;;;13.90;51.20;;;;;;5003663;28;20200;-66
2023/05/10 05:16:42;;;;;;;3.23;1.83;;;13.90;51.20;;;;;;5005373;28;20205;-65
2023/05/10 05:19:09;;;;;;;3.83;2.50;;;13.90;51.30;;;;;;5004380;28;20361;-66
2023/05/10 05:21:36;;;;;;;2.10;1.90;;;14.00;51.30;;;;;;5009355;28;20229;-66
2023/05/10 05:24:04;;;;;;;2.20;1.90;;;14.00;51.30;;;;;;4999831;28;20213;-65
2023/05/10 05:26:33;;;;;;;3.77;2.57;;;14.00;51.30;;;;;;5008418;28;20232;-65
2023/05/10 05:29:00;;;;;;;3.33;2.70;;;14.00;51.40;;;;;;5001763;28;20247;-65
2023/05/10 05:31:27;;;;;;;2.93;2.70;;;14.10;51.50;;;;;;4992569;28;20227;-65
2023/05/10 05:33:54;;;;;;;2.63;2.10;;;14.10;51.50;;;;;;5008182;28;20197;-66
2023/05/10 05:36:21;;;;;;;2.90;2.27;;;14.10;51.50;;;;;;5009890;28;20669;-66
2023/05/10 05:38:48;;;;;;;6.80;2.80;;;14.10;51.60;;;;;;4988010;28;20216;-66
2023/05/10 05:41:15;;;;;;;3.23;2.73;;;14.20;51.80;;;;;;5004627;28;20295;-67
2023/05/10 05:43:43;;;;;;;6.57;2.90;;;14.20;51.90;;;;;;5008941;28;20696;-66
2023/05/10 05:46:10;;;;;;;2.83;2.40;;;14.20;52.00;;;;;;5005798;28;20240;-66
2023/05/10 05:48:37;;;;;;;2.57;2.30;;;14.30;52.00;;;;;;5007869;28;20233;-66
2023/05/10 05:51:05;;;;;;;2.43;2.10;;;14.30;52.00;;;;;;5007950;28;20280;-66
2023/05/10 05:53:32;;;;;;;7.23;2.57;;;14.40;52.00;;;;;;5005970;28;20221;-66
2023/05/10 05:55:59;;;;;;;2.50;2.30;;;14.40;52.20;;;;;;5002451;28;20351;-67
2023/05/10 05:58:27;;;;;;;3.93;2.60;;;14.40;52.00;;;;;;5004020;28;20232;-66
2023/05/10 06:00:56;;;;;;;3.23;2.80;;;14.50;52.00;;;;;;5006569;28;20568;-66
2023/05/10 06:03:23;;;;;;;3.03;2.73;;;14.50;51.70;;;;;;5005493;28;20242;-65
2023/05/10 06:05:50;;;;;;;5.57;2.87;;;14.50;51.50;;;;;;5006784;28;20220;-65
2023/05/10 06:08:17;;;;;;;3.37;2.77;;;14.50;51.30;;;;;;5007583;28;20205;-66
2023/05/10 06:10:45;;;;;;;3.67;2.70;;;14.60;51.20;;;;;;4989683;28;20639;-66
2023/05/10 06:13:12;;;;;;;2.83;2.60;;;14.60;51.20;;;;;;5007652;28;20256;-66
2023/05/10 06:15:39;;;;;;;3.70;2.90;;;14.70;51.30;;;;;;5013914;28;20656;-65
2023/05/10 06:18:08;;;;;;;2.50;2.30;;;14.70;51.30;;;;;;4993173;28;20879;-65
2023/05/10 06:20:35;;;;;;;5.73;2.50;;;14.80;51.40;;;;;;5002844;28;20205;-65
2023/05/10 06:23:02;;;;;;;4.20;2.87;;;14.80;51.20;;;;;;5012164;28;20250;-66
2023/05/10 06:25:29;;;;;;;3.97;2.97;;;14.80;51.10;;;;;;5013320;28;20563;-66
2023/05/10 06:27:57;;;;;;;4.00;2.90;;;14.80;50.80;;;;;;5007733;28;20225;-66
2023/05/10 06:30:27;;;;;;;6.03;2.80;;;14.90;51.50;;;;;;5009918;28;20568;-66
2023/05/10 06:32:55;;;;;;;3.50;2.50;;;14.90;51.00;;;;;;4986061;28;20313;-65
2023/05/10 06:35:24;;;;;;;2.87;2.60;;;15.00;50.90;;;;;;5007815;28;20194;-65
2023/05/10 06:37:52;;;;;;;3.27;2.57;;;15.10;50.90;;;;;;5009299;28;20189;-65
2023/05/10 06:40:19;;;;;;;5.70;2.70;;;15.20;51.10;;;;;;5008584;28;20206;-66
2023/05/10 06:42:47;;;;;;;2.87;2.57;;;15.30;51.10;;;;;;5007217;28;20284;-65
2023/05/10 06:45:14;;;;;;;3.77;2.47;;;15.40;51.10;;;;;;5011850;28;20296;-65
2023/05/10 06:47:42;;;;;;;4.10;2.47;;;15.40;51.00;;;;;;4982753;28;20214;-65
2023/05/10 06:50:11;;;;;;;3.57;2.43;;;15.50;50.90;;;;;;5002691;28;20226;-65
2023/05/10 06:52:39;;;;;;;5.50;2.70;;;15.60;50.90;;;;;;5003946;28;20305;-65
2023/05/10 06:55:08;;;;;;;7.30;3.40;;;15.60;51.00;;;;;;5008471;28;20240;-65
2023/05/10 06:57:35;;;;;;;9.80;2.83;;;15.70;51.00;;;;;;5006122;28;20533;-65
2023/05/10 07:00:04;;;;;;;4.73;2.57;;;15.80;51.00;;;;;;5011030;28;20531;-65
2023/05/10 07:02:32;;;;;;;5.17;3.00;;;15.80;50.80;;;;;;5007580;28;20235;-65
2023/05/10 07:04:59;;;;;;;4.77;2.40;;;15.90;50.60;;;;;;5002660;28;21100;-65
2023/05/10 07:07:28;;;;;;;3.60;2.60;;;16.00;50.60;;;;;;5000359;28;20227;-65
2023/05/10 07:09:57;;;;;;;3.67;2.67;;;16.10;50.50;;;;;;5002294;28;20325;-66
2023/05/10 07:12:24;;;;;;;2.83;2.33;;;16.20;50.10;;;;;;5008583;28;20191;-65
2023/05/10 07:14:52;;;;;;;4.80;2.30;;;16.30;50.20;;;;;;5008424;28;20261;-66
2023/05/10 07:17:19;;;;;;;2.50;2.30;;;16.40;50.30;;;;;;5002082;28;20198;-66
2023/05/10 07:19:46;;;;;;;3.97;2.33;;;16.50;50.00;;;;;;5003919;28;20298;-65
2023/05/10 07:22:13;;;;;;;2.40;2.20;;;16.60;49.30;;;;;;5008734;28;20200;-65
2023/05/10 07:24:40;;;;;;;2.33;2.10;;;16.60;48.30;;;;;;5005519;28;20219;-66
2023/05/10 07:27:08;;;;;;;4.47;2.23;;;16.70;48.00;;;;;;5008912;28;20730;-64
2023/05/10 07:29:36;;;;;;;5.17;2.10;;;16.80;47.50;;;;;;5009492;28;20254;-65
2023/05/10 07:32:03;;;;;;;6.37;2.20;;;16.80;47.40;;;;;;5005162;28;20293;-65
2023/05/10 07:34:31;;;;;;;3.27;2.03;;;16.90;46.90;;;;;;5005676;28;20286;-65
2023/05/10 07:36:59;;;;;;;4.97;2.37;;;16.90;46.90;;;;;;4998013;28;20199;-65
2023/05/10 07:39:27;;;;;;;4.90;2.40;;;17.00;46.70;;;;;;5005748;28;20202;-65
2023/05/10 07:41:54;;;;;;;3.30;2.40;;;17.10;46.60;;;;;;4990452;28;20258;-65
2023/05/10 07:44:22;;;;;;;5.50;2.40;;;17.10;46.30;;;;;;5005951;28;20198;-65
2023/05/10 07:46:49;;;;;;;4.40;2.10;;;17.20;46.50;;;;;;5004492;28;20191;-65
2023/05/10 07:49:17;;;;;;;3.13;2.00;;;17.30;46.40;;;;;;5006903;28;20194;-66
2023/05/10 07:51:44;;;;;;;2.77;1.90;;;17.40;45.80;;;;;;5008409;28;20278;-65
2023/05/10 07:54:12;;;;;;;2.53;1.77;;;17.50;45.90;;;;;;5004305;28;20225;-65
2023/05/10 07:56:41;;;;;;;2.40;2.10;;;17.50;45.90;;;;;;5004622;28;20191;-65
2023/05/10 07:59:08;;;;;;;2.73;2.40;;;17.70;46.00;;;;;;5005850;28;20187;-65
2023/05/10 08:01:37;;;;;;;5.30;2.40;;;17.80;45.90;;;;;;5003471;28;20226;-65
2023/05/10 08:04:04;;;;;;;2.60;2.03;;;17.90;45.40;;;;;;5006529;28;20538;-66
2023/05/10 08:06:33;;;;;;;5.07;2.53;;;17.90;45.00;;;;;;4989925;28;20230;-65
2023/05/10 08:09:00;;;;;;;2.33;2.10;;;18.00;44.70;;;;;;5007160;28;20207;-65
2023/05/10 08:11:28;;;;;;;2.50;2.30;;;18.00;44.20;;;;;;4989509;28;20196;-66
2023/05/10 08:13:55;;;;;;;3.17;1.97;;;18.10;44.20;;;;;;5005200;28;20199;-66
2023/05/10 08:16:22;;;;;;;3.53;2.10;;;18.10;44.00;;;;;;4999738;28;20666;-66
2023/05/10 08:18:51;;;;;;;2.00;1.90;;;18.20;44.10;;;;;;5006489;28;20199;-66
2023/05/10 08:21:18;;;;;;;2.00;1.80;;;18.30;44.20;;;;;;5003844;28;20210;-66
2023/05/10 08:23:45;;;;;;;9.00;2.13;;;18.40;43.40;;;;;;5007583;28;20235;-66
2023/05/10 08:26:12;;;;;;;2.63;2.07;;;18.50;43.90;;;;;;5008280;28;20626;-66
2023/05/10 08:28:39;;;;;;;3.47;2.17;;;18.50;42.60;;;;;;5004077;28;20283;-65
2023/05/10 08:31:07;;;;;;;1.73;1.63;;;18.50;42.10;;;;;;5008580;28;20199;-66
2023/05/10 08:33:34;;;;;;;4.87;2.30;;;18.60;42.30;;;;;;5007524;28;20192;-65
2023/05/10 08:36:02;;;;;;;2.20;2.00;;;18.60;42.10;;;;;;4999175;28;20236;-64
2023/05/10 08:38:29;;;;;;;2.37;1.53;;;18.60;42.10;;;;;;4987243;28;20249;-65
2023/05/10 08:40:58;;;;;;;1.97;1.83;;;18.70;41.70;;;;;;5005831;28;20290;-65
2023/05/10 08:43:28;;;;;;;8.17;1.90;;;18.80;41.10;;;;;;5007451;28;20585;-65
2023/05/10 08:45:56;;;;;;;12.70;2.10;;;18.80;40.20;;;;;;4986000;28;20212;-65
2023/05/10 08:48:25;;;;;;;6.53;1.83;;;18.70;39.50;;;;;;5003944;28;20201;-66
2023/05/10 08:50:55;;;;;;;3.83;1.73;;;18.80;39.40;;;;;;5007633;28;20201;-65
2023/05/10 08:53:27;;;;;;;2.80;1.85;;;18.80;39.40;;;;;;5007186;28;20758;-65
2023/05/10 08:55:54;;;;;;;5.05;1.67;;;18.80;39.50;;;;;;5004561;28;20193;-65
2023/05/10 08:58:21;;;;;;;4.22;1.85;;;18.90;39.10;;;;;;5007901;28;20210;-65
2023/05/10 09:00:51;;;;;;;4.28;1.83;;;18.90;39.20;;;;;;5001834;28;20204;-65
2023/05/10 09:03:19;;;;;;;7.75;2.25;;;19.00;39.30;;;;;;5000453;28;20239;-66
2023/05/10 09:05:46;;;;;;;3.88;2.08;;;19.10;38.80;;;;;;5007832;28;20311;-65
2023/05/10 09:08:16;;;;;;;4.32;2.13;;;19.10;38.40;;;;;;5006711;28;20669;-65
2023/05/10 09:10:47;;;;;;;6.03;1.92;;;19.20;38.80;;;;;;5004729;28;20198;-66
2023/05/10 09:13:16;;;;;;;5.38;1.52;;;19.20;39.10;;;;;;5003104;28;20194;-66
2023/05/10 09:15:44;;;;;;;3.63;2.00;;;19.30;39.30;;;;;;5007283;28;20198;-64
2023/05/10 09:18:11;;;;;;;4.18;2.15;;;19.40;39.20;;;;;;5003272;28;20233;-65
2023/05/10 09:20:38;;;;;;;7.70;2.00;;;19.40;39.20;;;;;;5008176;28;20206;-65
2023/05/10 09:23:05;;;;;;;6.95;1.85;;;19.70;50.70;;;;;;5005578;28;20591;-65
2023/05/10 09:25:33;;;;;;;3.03;1.92;;;19.50;38.70;;;;;;5004265;28;20217;-65
2023/05/10 09:28:01;;;;;;;4.65;1.63;;;19.60;38.70;;;;;;5006646;28;20199;-65
2023/05/10 09:30:30;;;;;;;2.13;1.77;;;19.60;38.80;;;;;;5006920;28;20555;-66
2023/05/10 09:32:58;;;;;;;10.18;1.70;;;19.70;38.90;;;;;;5005018;28;20198;-65
2023/05/10 09:35:27;;;;;;;4.25;1.92;;;19.80;38.70;;;;;;5003973;28;20188;-65
2023/05/10 09:37:57;;;;;;;9.00;1.85;;;19.80;38.30;;;;;;5001727;28;20207;-65
2023/05/10 09:40:25;;;;;;;2.80;2.10;;;19.80;37.90;;;;;;5011626;28;20215;-65
2023/05/10 09:42:54;;;;;;;3.35;1.73;;;19.90;38.10;;;;;;4988687;28;20297;-66
2023/05/10 09:45:24;;;;;;;7.68;2.30;;;19.90;38.10;;;;;;5003364;28;20801;-65
2023/05/10 09:47:51;;;;;;;2.55;2.00;;;20.00;37.80;;;;;;5006491;28;20227;-64
2023/05/10 09:50:20;;;;;;;3.10;1.90;;;20.10;38.10;;;;;;5011568;28;20207;-64
2023/05/10 09:52:49;;;;;;;5.28;2.17;;;20.10;38.30;;;;;;5007549;28;20788;-65
2023/05/10 09:55:17;;;;;;;4.55;2.20;;;20.20;37.50;;;;;;5011796;28;20203;-65
2023/05/10 09:57:44;;;;;;;5.43;1.90;;;20.20;37.20;;;;;;5011253;28;20420;-65
2023/05/10 10:00:17;;;;;;;3.00;1.92;;;19.90;50.00;;;;;;4990865;28;20249;-65
2023/05/10 10:02:47;;;;;;;4.18;1.95;;;20.20;36.60;;;;;;5011067;28;20297;-65
2023/05/10 10:05:14;;;;;;;19.42;2.45;;;20.00;47.10;;;;;;5010430;28;20202;-66
2023/05/10 10:07:42;;;;;;;2.35;1.75;;;20.20;37.10;;;;;;5006310;28;20844;-66
2023/05/10 10:10:12;;;;;;;2.20;1.80;;;20.20;37.10;;;;;;5010540;28;20266;-66
2023/05/10 10:12:42;;;;;;;2.70;1.90;;;20.30;37.40;;;;;;5008828;28;21044;-64
2023/05/10 10:15:10;;;;;;;2.72;1.80;;;20.80;50.70;;;;;;5008202;28;20202;-64
2023/05/10 10:17:39;;;;;;;7.80;2.45;;;20.30;36.60;;;;;;5009988;28;20187;-65
2023/05/10 10:20:09;;;;;;;3.20;1.85;;;20.40;36.70;;;;;;5007155;28;20300;-64
2023/05/10 10:22:37;;;;;;;6.13;2.10;;;20.60;50.90;;;;;;4990218;28;20227;-65
2023/05/10 10:25:05;;;;;;;5.90;2.20;;;20.40;36.40;;;;;;5010164;28;20944;-65
2023/05/10 10:27:42;;;;;;;2.10;1.90;;;20.40;36.40;;;;;;4990877;28;20623;-64
2023/05/10 10:30:18;;;;;;;7.28;1.88;;;20.40;36.40;;;;;;5010976;28;20195;-64
2023/05/10 10:33:18;;;;;;;2.75;1.92;;;20.50;36.50;;;;;;5006865;28;20199;-63
2023/05/10 10:35:47;;;;;;;6.22;2.25;;;20.50;36.40;;;;;;5007090;28;20187;-64
2023/05/10 10:38:15;;;;;;;5.57;1.85;;;21.00;41.40;;;;;;5009592;28;20195;-64
2023/05/10 10:40:42;;;;;;;3.42;1.70;;;20.50;35.40;;;;;;5011777;28;20199;-65
2023/05/10 10:43:26;;;;;;;4.35;1.90;;;20.60;49.10;;;;;;5006366;28;20250;-66
2023/05/10 10:46:13;;;;;;;2.10;1.77;;;20.60;36.00;;;;;;5003037;28;20199;-66
2023/05/10 10:48:40;;;;;;;3.72;2.22;;;20.60;35.60;;;;;;4998679;28;20293;-65
2023/05/10 10:51:09;;;;;;;2.92;1.80;;;20.80;48.90;;;;;;4988541;28;20200;-65
2023/05/10 10:53:39;;;;;;;2.53;1.88;;;20.70;36.10;;;;;;5007474;28;20207;-66
2023/05/10 10:56:09;;;;;;;2.97;1.63;;;20.80;35.90;;;;;;5003289;28;20203;-66
2023/05/10 10:58:38;;;;;;;5.47;2.17;;;20.70;35.60;;;;;;5010559;28;20293;-66
2023/05/10 11:01:13;;;;;;;5.40;2.20;;;20.80;35.60;;;;;;5008790;28;20281;-66
2023/05/10 11:03:40;;;;;;;2.65;1.90;;;21.00;47.00;;;;;;5005191;28;20314;-66
2023/05/10 11:06:09;;;;;;;3.13;1.70;;;20.80;35.20;;;;;;5009262;28;20243;-65
2023/05/10 11:08:44;;;;;;;8.50;2.08;;;20.80;34.60;;;;;;5007360;28;20666;-66
2023/05/10 11:11:15;;;;;;;2.35;1.70;;;20.80;47.70;;;;;;5006510;28;20226;-66
2023/05/10 11:13:44;;;;;;;7.45;2.03;;;20.90;35.40;;;;;;5004366;28;20187;-66
2023/05/10 11:16:14;;;;;;;2.97;1.85;;;21.00;35.60;;;;;;5005089;28;20200;-66
2023/05/10 11:18:42;;;;;;;2.17;1.67;;;21.00;35.20;;;;;;5007905;28;20199;-65
2023/05/10 11:21:11;;;;;;;3.45;2.05;;;21.10;35.00;;;;;;5008856;28;20192;-65
2023/05/10 11:23:50;;;;;;;4.43;2.05;;;21.20;34.90;;;;;;5006218;28;20187;-66
2023/05/10 11:26:22;;;;;;;6.88;2.42;;;21.30;35.00;;;;;;5009604;28;20210;-65
2023/05/10 11:28:50;;;;;;;7.57;1.70;;;21.20;34.20;;;;;;5010247;28;20195;-66
2023/05/10 11:31:17;;;;;;;5.60;2.35;;;21.20;34.30;;;;;;5004775;28;20245;-65
2023/05/10 11:33:45;;;;;;;4.43;2.17;;;21.20;34.70;;;;;;5009518;28;20637;-65
2023/05/10 11:36:15;;;;;;;4.20;2.08;;;21.20;34.90;;;;;;5008650;28;20278;-65
2023/05/10 11:38:42;;;;;;;5.50;1.90;;;21.20;34.60;;;;;;5004286;28;20238;-66
2023/05/10 11:41:11;;;;;;;1.95;1.80;;;21.10;34.40;;;;;;5006086;28;20195;-65
2023/05/10 11:43:39;;;;;;;4.03;1.92;;;21.20;34.60;;;;;;5002774;28;20196;-65
2023/05/10 11:46:07;;;;;;;5.25;1.88;;;21.20;34.90;;;;;;5004192;28;20297;-64
2023/05/10 11:48:34;;;;;;;6.15;2.00;;;21.30;34.60;;;;;;4987796;28;20202;-65
2023/05/10 11:51:02;;;;;;;5.38;1.90;;;21.30;34.50;;;;;;5008422;28;20262;-65
2023/05/10 11:53:34;;;;;;;6.50;2.22;;;21.30;34.40;;;;;;5004445;28;20195;-65
2023/05/10 11:56:05;;;;;;;1.75;1.60;;;21.30;35.10;;;;;;5009513;28;20568;-65
2023/05/10 11:58:33;;;;;;;3.22;1.70;;;21.40;35.10;;;;;;5005537;28;20802;-65
2023/05/10 12:01:00;;;;;;;5.03;2.00;;;21.40;34.80;;;;;;5008130;28;20270;-65
2023/05/10 12:03:28;;;;;;;3.65;1.77;;;21.50;35.10;;;;;;4989928;28;20705;-65
2023/05/10 12:05:56;;;;;;;2.17;1.77;;;21.50;35.20;;;;;;5005494;28;20471;-64
2023/05/10 12:08:24;;;;;;;3.28;2.15;;;21.50;35.00;;;;;;4988931;28;20290;-65
2023/05/10 12:10:53;;;;;;;1.98;1.60;;;21.60;35.40;;;;;;5008784;28;20242;-64
2023/05/10 12:13:21;;;;;;;2.75;1.88;;;21.60;35.50;;;;;;5004080;28;20198;-64
2023/05/10 12:15:48;;;;;;;2.20;2.00;;;21.60;35.50;;;;;;5005322;28;20559;-64
2023/05/10 12:18:15;;;;;;;9.95;2.00;;;21.70;35.50;;;;;;5007840;28;20298;-72
2023/05/10 12:20:43;;;;;;;2.72;1.50;;;21.70;35.20;;;;;;4987606;28;20221;-65
2023/05/10 12:23:10;;;;;;;2.72;2.15;;;21.70;35.90;;;;;;5007585;28;20226;-66
2023/05/10 12:25:39;;;;;;;2.85;1.70;;;21.70;36.40;;;;;;5004710;28;20698;-65
2023/05/10 12:28:09;;;;;;;2.20;1.80;;;21.70;36.30;;;;;;5005496;28;20207;-65
2023/05/10 12:30:38;;;;;;;5.05;2.17;;;21.80;36.60;;;;;;4993073;28;20668;-65
2023/05/10 12:33:10;;;;;;;1.90;1.80;;;21.80;36.50;;;;;;5002583;28;20201;-65
2023/05/10 12:35:45;;;;;;;2.30;1.60;;;21.80;36.40;;;;;;5006188;28;20246;-65
2023/05/10 12:38:37;;;;;;;3.53;1.60;;;21.90;36.60;;;;;;5002266;28;20651;-72
2023/05/10 12:41:06;;;;;;;4.75;1.70;;;21.90;36.60;;;;;;4985622;28;20621;-66
2023/05/10 12:43:36;;;;;;;6.25;1.50;;;22.00;36.30;;;;;;4983521;28;20332;-66
2023/05/10 12:46:07;;;;;;;3.88;1.80;;;22.00;36.20;;;;;;4997952;28;20207;-66
2023/05/10 12:48:35;;;;;;;2.80;1.67;;;22.00;35.60;;;;;;4996627;28;20298;-66
2023/05/10 12:51:02;;;;;;;6.70;1.80;;;22.00;35.70;;;;;;5003770;28;20199;-66
2023/05/10 12:53:29;;;;;;;8.85;1.70;;;22.00;35.60;;;;;;5008457;28;20465;-66
2023/05/10 12:55:57;;;;;;;10.45;2.28;;;22.00;35.20;;;;;;5004749;28;20199;-66